Rp Zug — HE7351 — position and weather

sailwx.info

Track history (hours):
 
Tides and Currents Weather Stations Pressure Air Temp Water Temp Dewpoint Dewpoint Depression Visibility Wind Speed Wind Dir Waves Ship Positions

Rp Zug

Last reported at 2017-Jul-21 15:44 UTC. Time now 2017-Jul-22 04:37 UTC.
Position N 49°14' E 008°23'.

Length 110 m; draft 1.4 m.

Type: Tanker. MMSI: 269057351.

Date/timePositionNaut miles runAvg speedWind from/ knotsBaromVisibWave heightAir tempDewpointWater temp
2017-Jul-21 15:44N 49°14' E 008°23'1 0.0
2017-Jul-20 10:12N 49°13' E 008°23'100 3.5
2017-Jul-19 05:17N 50°41' E 007°11'3 5.1
2017-Jul-19 04:43N 50°43' E 007°08'1 4.8
2017-Jul-19 04:27N 50°44' E 007°07'2 5.1
2017-Jul-19 04:00N 50°46' E 007°05'3 5.1
2017-Jul-19 03:29N 50°48' E 007°02'2 3.8
2017-Jul-19 02:55N 50°49' E 006°60'0 0.0
2017-Jul-18 18:14N 50°49' E 006°60'2 7.1
2017-Jul-18 17:59N 50°48' E 007°02'5 9.7
2017-Jul-18 17:29N 50°44' E 007°07'5 0.1
2017-Jul-17 01:46N 50°40' E 007°11'1 5.3
2017-Jul-17 01:30N 50°42' E 007°10'2 4.9
2017-Jul-17 01:00N 50°43' E 007°07'2 4.9
2017-Jul-17 00:30N 50°45' E 007°06'3 5.3
2017-Jul-17 00:00N 50°47' E 007°02'3 4.8
2017-Jul-16 23:29N 50°49' E 007°01'2 3.7
2017-Jul-16 22:59N 50°51' E 006°59'2 4.9
2017-Jul-16 22:30N 50°52' E 007°02'1 2.8
2017-Jul-16 21:59N 50°54' E 007°01'2 4.0
2017-Jul-16 21:30N 50°55' E 006°59'3 5.2
2017-Jul-16 21:00N 50°57' E 006°59'26 3.5
2017-Jul-16 13:33N 51°21' E 006°40'0 5.7
2017-Jul-16 13:30N 51°21' E 006°40'2 3.8
2017-Jul-16 13:00N 51°22' E 006°42'2 5.0
2017-Jul-16 12:30N 51°24' E 006°45'3 5.4
2017-Jul-16 12:00N 51°26' E 006°43'2 4.2
2017-Jul-16 11:30N 51°28' E 006°42'2 3.7
2017-Jul-16 11:00N 51°30' E 006°43'2 4.8
2017-Jul-16 10:30N 51°32' E 006°41'3 5.1
2017-Jul-16 09:58N 51°35' E 006°40'2 5.4
2017-Jul-16 09:30N 51°34' E 006°36'3 5.4
2017-Jul-16 09:00N 51°37' E 006°35'3 5.3
2017-Jul-16 08:30N 51°39' E 006°36'3 5.9
2017-Jul-16 08:00N 51°40' E 006°31'3 5.1
2017-Jul-16 07:30N 51°42' E 006°28'3 5.6
2017-Jul-16 06:59N 51°43' E 006°24'2 4.4
2017-Jul-16 06:30N 51°45' E 006°23'3 5.5
2017-Jul-16 06:00N 51°47' E 006°19'3 6.0
2017-Jul-16 05:30N 51°49' E 006°17'3 6.1
2017-Jul-16 05:00N 51°50' E 006°12'3 5.9
2017-Jul-16 04:30N 51°51' E 006°07'3 5.7
2017-Jul-16 04:00N 51°52' E 006°03'0 0.0
2017-Jul-16 03:30N 51°52' E 006°03'0 0.9
2017-Jul-16 03:00N 51°52' E 006°03'0 0.3
2017-Jul-16 02:30N 51°52' E 006°02'2 4.8
2017-Jul-16 02:00N 51°51' E 005°59'3 5.9
2017-Jul-16 01:30N 51°52' E 005°54'3 5.1
2017-Jul-16 01:00N 51°52' E 005°50'3 6.4
2017-Jul-16 00:30N 51°53' E 005°46'3 6.4
2017-Jul-16 00:00N 51°54' E 005°41'3 6.6
2017-Jul-15 23:30N 51°54' E 005°35'5 6.5
2017-Jul-15 22:49N 51°53' E 005°28'2 6.3
2017-Jul-15 22:25N 51°52' E 005°25'3 6.7
2017-Jul-15 22:00N 51°49' E 005°23'3 4.8
2017-Jul-15 21:27N 51°49' E 005°19'4 6.9
2017-Jul-15 20:56N 51°49' E 005°13'4 7.2
2017-Jul-15 20:20N 51°49' E 005°06'3 7.6
2017-Jul-15 20:00N 51°49' E 005°02'4 8.5
2017-Jul-15 19:30N 51°50' E 004°55'5 9.1
2017-Jul-15 19:00N 51°49' E 004°48'4 9.2
2017-Jul-15 18:30N 51°49' E 004°41'4 8.7
2017-Jul-15 18:00N 51°53' E 004°37'4 8.2
2017-Jul-15 17:30N 51°54' E 004°31'3 5.2
2017-Jul-15 17:01N 51°54' E 004°27'5 9.0
2017-Jul-15 16:30N 51°54' E 004°19'2 3.1
2017-Jul-15 16:00N 51°53' E 004°18'0 0.0
2017-Jul-15 15:30N 51°53' E 004°18'0 0.0
2017-Jul-15 15:00N 51°53' E 004°18'0 0.0
2017-Jul-15 14:00N 51°53' E 004°18'0 0.0
2017-Jul-15 13:30N 51°53' E 004°18'0 0.0
2017-Jul-15 13:00N 51°53' E 004°18'0 0.0
2017-Jul-15 12:30N 51°53' E 004°18'0 0.0
2017-Jul-15 12:00N 51°53' E 004°18'0 0.0
2017-Jul-15 11:30N 51°53' E 004°18'0 0.0
2017-Jul-15 11:00N 51°53' E 004°18'0 0.0
2017-Jul-15 10:30N 51°53' E 004°18'0 0.0
2017-Jul-15 10:00N 51°53' E 004°18'0 0.0
2017-Jul-15 09:30N 51°53' E 004°18'0 0.0
2017-Jul-15 09:00N 51°53' E 004°18'0 0.0
2017-Jul-15 08:30N 51°53' E 004°18'0 0.0
2017-Jul-15 08:00N 51°53' E 004°18'1 2.5
2017-Jul-15 07:30N 51°53' E 004°19'0 0.2
2017-Jul-15 07:00N 51°53' E 004°19'0 0.0
2017-Jul-15 06:30N 51°53' E 004°19'0 0.0
2017-Jul-15 06:00N 51°53' E 004°19'0 0.0
2017-Jul-15 05:30N 51°53' E 004°19'0 0.0
2017-Jul-15 05:00N 51°53' E 004°19'0 0.0
2017-Jul-15 04:31N 51°53' E 004°19'0 0.0
2017-Jul-15 04:00N 51°53' E 004°19'0 0.0
2017-Jul-15 03:30N 51°53' E 004°19'0 0.0
2017-Jul-15 03:00N 51°53' E 004°19'0 0.0
2017-Jul-15 02:30N 51°53' E 004°19'0 0.0
2017-Jul-15 02:00N 51°53' E 004°19'0 0.0
2017-Jul-15 01:30N 51°53' E 004°19'0 0.0
2017-Jul-15 01:01N 51°53' E 004°19'0 0.0
2017-Jul-15 00:30N 51°53' E 004°19'0 0.0
2017-Jul-15 00:00N 51°53' E 004°19'0 0.0
2017-Jul-14 23:30N 51°53' E 004°19'0 0.0
2017-Jul-14 23:01N 51°53' E 004°19'0 0.0
2017-Jul-14 22:31N 51°53' E 004°19'0 0.0
2017-Jul-14 22:00N 51°53' E 004°19'0 0.0
2017-Jul-14 21:30N 51°53' E 004°19'0 0.0
2017-Jul-14 21:00N 51°53' E 004°19'0 0.0
2017-Jul-14 20:30N 51°53' E 004°19'0 0.0
2017-Jul-14 20:00N 51°53' E 004°19'0 0.0
2017-Jul-14 19:30N 51°53' E 004°19'0 0.0
2017-Jul-14 19:00N 51°53' E 004°19'0 0.0
2017-Jul-14 18:30N 51°53' E 004°19'0 0.0
2017-Jul-14 18:00N 51°53' E 004°19'0 0.0
2017-Jul-14 17:30N 51°53' E 004°19'0 0.0
2017-Jul-14 17:00N 51°53' E 004°19'0 0.0
2017-Jul-14 16:30N 51°53' E 004°19'0 0.0
2017-Jul-14 16:00N 51°53' E 004°19'0 0.0
2017-Jul-14 15:30N 51°53' E 004°19'0 0.0
2017-Jul-14 15:00N 51°53' E 004°19'0 0.0
2017-Jul-14 14:30N 51°53' E 004°19'0 0.0
2017-Jul-14 14:00N 51°53' E 004°19'0 0.0
2017-Jul-14 13:30N 51°53' E 004°19'0 0.0
2017-Jul-14 13:00N 51°53' E 004°19'0 0.0
2017-Jul-14 12:30N 51°53' E 004°19'0 0.0
2017-Jul-14 12:00N 51°53' E 004°19'0 0.4
2017-Jul-14 11:30N 51°53' E 004°19'0 0.4
2017-Jul-14 11:00N 51°53' E 004°19'0 0.0
2017-Jul-14 10:30N 51°53' E 004°19'0 0.0
2017-Jul-14 09:36N 51°53' E 004°19'0 0.0
2017-Jul-14 09:30N 51°53' E 004°19'0 0.0
2017-Jul-14 09:00N 51°53' E 004°19'0 0.0
2017-Jul-14 08:30N 51°53' E 004°19'0 0.0
2017-Jul-14 08:00N 51°53' E 004°19'0 0.0
2017-Jul-14 07:30N 51°53' E 004°19'0 0.0
2017-Jul-14 07:00N 51°53' E 004°19'0 0.0
2017-Jul-14 06:30N 51°53' E 004°19'0 0.0
2017-Jul-14 05:59N 51°53' E 004°19'0 0.0
2017-Jul-14 05:30N 51°53' E 004°19'0 0.0
2017-Jul-14 05:00N 51°53' E 004°19'0 0.0
2017-Jul-14 04:30N 51°53' E 004°19'0 0.0
2017-Jul-14 03:58N 51°53' E 004°19'0 0.0
2017-Jul-14 03:30N 51°53' E 004°19'0 0.0
2017-Jul-14 03:00N 51°53' E 004°19'0 0.0
2017-Jul-14 02:30N 51°53' E 004°19'0 0.0
2017-Jul-14 02:00N 51°53' E 004°19'0 0.0
2017-Jul-14 01:30N 51°53' E 004°19'0 0.0
2017-Jul-14 01:00N 51°53' E 004°19'0 0.0
2017-Jul-14 00:30N 51°53' E 004°19'0 0.0
2017-Jul-14 00:00N 51°53' E 004°19'0 0.0
2017-Jul-13 23:30N 51°53' E 004°19'0 0.0
2017-Jul-13 23:00N 51°53' E 004°19'0 0.0
2017-Jul-13 22:30N 51°53' E 004°19'0 0.0
2017-Jul-13 22:00N 51°53' E 004°19'0 0.0
2017-Jul-13 21:30N 51°53' E 004°19'0 0.0
2017-Jul-13 21:00N 51°53' E 004°19'0 0.0
2017-Jul-13 20:24N 51°53' E 004°19'0 0.0
2017-Jul-13 20:00N 51°53' E 004°19'0 0.4
2017-Jul-13 19:30N 51°53' E 004°19'4 8.8
2017-Jul-13 19:00N 51°51' E 004°25'5 9.5
2017-Jul-13 18:30N 51°50' E 004°32'4 8.3
2017-Jul-13 18:00N 51°48' E 004°39'5 9.0
2017-Jul-13 17:30N 51°49' E 004°46'510.7
2017-Jul-13 17:00N 51°50' E 004°54'1310.8
2017-Jul-13 15:48N 51°49' E 005°16'410.0
2017-Jul-13 15:25N 51°48' E 005°22'611.1
2017-Jul-13 14:53N 51°53' E 005°27'4 9.3
2017-Jul-13 14:30N 51°54' E 005°33'0 0.0
2017-Jul-13 13:56N 51°54' E 005°33'0 0.0
2017-Jul-13 13:20N 51°54' E 005°33'0 0.0
2017-Jul-13 13:00N 51°54' E 005°33'0 0.0
2017-Jul-13 12:26N 51°54' E 005°33'0 0.0
2017-Jul-13 11:50N 51°54' E 005°33'0 0.0
2017-Jul-13 11:29N 51°54' E 005°33'0 0.0
2017-Jul-13 10:50N 51°54' E 005°33'0 0.0
2017-Jul-13 10:26N 51°54' E 005°33'1 1.2
2017-Jul-13 10:00N 51°54' E 005°34'611.5
2017-Jul-13 09:30N 51°53' E 005°43'611.8
2017-Jul-13 09:00N 51°51' E 005°51'5 9.0
2017-Jul-13 08:30N 51°51' E 005°59'4 8.4
2017-Jul-13 08:00N 51°51' E 006°06'611.1
2017-Jul-13 07:30N 51°50' E 006°14'510.9
2017-Jul-13 07:00N 51°46' E 006°20'4 8.5
2017-Jul-13 06:30N 51°43' E 006°25'510.3
2017-Jul-13 05:59N 51°40' E 006°32'4 7.9
2017-Jul-13 05:30N 51°37' E 006°36'4 8.1
2017-Jul-13 05:00N 51°34' E 006°41'5 9.5
2017-Jul-13 04:30N 51°30' E 006°43'4 7.8
2017-Jul-13 04:00N 51°26' E 006°43'5 8.4
2017-Jul-13 03:22N 51°21' E 006°39'13 7.5
2017-Jul-13 01:34N 51°09' E 006°48'13 7.9
2017-Jul-12 23:57N 50°58' E 006°60'4 9.6
2017-Jul-12 23:30N 50°54' E 006°60'3 5.7
2017-Jul-12 22:59N 50°51' E 006°59'4 9.2
2017-Jul-12 22:30N 50°47' E 007°02'610.7
2017-Jul-12 21:57N 50°43' E 007°09'  
Track history (hours):
 
Tides and Currents Weather Stations Pressure Air Temp Water Temp Dewpoint Dewpoint Depression Visibility Wind Speed Wind Dir Waves Ship Positions

Rp Zug

Last reported at 2017-Jul-21 15:44 UTC. Time now 2017-Jul-22 04:37 UTC.
Position N 49°14' E 008°23'.

Length 110 m; draft 1.4 m.

Type: Tanker. MMSI: 269057351.

Date/timePositionNaut miles runAvg speedWind from/ knotsBaromVisibWave heightAir tempDewpointWater temp
2017-Jul-21 15:44N 49°14' E 008°23'1 0.0
2017-Jul-20 10:12N 49°13' E 008°23'100 3.5
2017-Jul-19 05:17N 50°41' E 007°11'3 5.1
2017-Jul-19 04:43N 50°43' E 007°08'1 4.8
2017-Jul-19 04:27N 50°44' E 007°07'2 5.1
2017-Jul-19 04:00N 50°46' E 007°05'3 5.1
2017-Jul-19 03:29N 50°48' E 007°02'2 3.8
2017-Jul-19 02:55N 50°49' E 006°60'0 0.0
2017-Jul-18 18:14N 50°49' E 006°60'2 7.1
2017-Jul-18 17:59N 50°48' E 007°02'5 9.7
2017-Jul-18 17:29N 50°44' E 007°07'5 0.1
2017-Jul-17 01:46N 50°40' E 007°11'1 5.3
2017-Jul-17 01:30N 50°42' E 007°10'2 4.9
2017-Jul-17 01:00N 50°43' E 007°07'2 4.9
2017-Jul-17 00:30N 50°45' E 007°06'3 5.3
2017-Jul-17 00:00N 50°47' E 007°02'3 4.8
2017-Jul-16 23:29N 50°49' E 007°01'2 3.7
2017-Jul-16 22:59N 50°51' E 006°59'2 4.9
2017-Jul-16 22:30N 50°52' E 007°02'1 2.8
2017-Jul-16 21:59N 50°54' E 007°01'2 4.0
2017-Jul-16 21:30N 50°55' E 006°59'3 5.2
2017-Jul-16 21:00N 50°57' E 006°59'26 3.5
2017-Jul-16 13:33N 51°21' E 006°40'0 5.7
2017-Jul-16 13:30N 51°21' E 006°40'2 3.8
2017-Jul-16 13:00N 51°22' E 006°42'2 5.0
2017-Jul-16 12:30N 51°24' E 006°45'3 5.4
2017-Jul-16 12:00N 51°26' E 006°43'2 4.2
2017-Jul-16 11:30N 51°28' E 006°42'2 3.7
2017-Jul-16 11:00N 51°30' E 006°43'2 4.8
2017-Jul-16 10:30N 51°32' E 006°41'3 5.1
2017-Jul-16 09:58N 51°35' E 006°40'2 5.4
2017-Jul-16 09:30N 51°34' E 006°36'3 5.4
2017-Jul-16 09:00N 51°37' E 006°35'3 5.3
2017-Jul-16 08:30N 51°39' E 006°36'3 5.9
2017-Jul-16 08:00N 51°40' E 006°31'3 5.1
2017-Jul-16 07:30N 51°42' E 006°28'3 5.6
2017-Jul-16 06:59N 51°43' E 006°24'2 4.4
2017-Jul-16 06:30N 51°45' E 006°23'3 5.5
2017-Jul-16 06:00N 51°47' E 006°19'3 6.0
2017-Jul-16 05:30N 51°49' E 006°17'3 6.1
2017-Jul-16 05:00N 51°50' E 006°12'3 5.9
2017-Jul-16 04:30N 51°51' E 006°07'3 5.7
2017-Jul-16 04:00N 51°52' E 006°03'0 0.0
2017-Jul-16 03:30N 51°52' E 006°03'0 0.9
2017-Jul-16 03:00N 51°52' E 006°03'0 0.3
2017-Jul-16 02:30N 51°52' E 006°02'2 4.8
2017-Jul-16 02:00N 51°51' E 005°59'3 5.9
2017-Jul-16 01:30N 51°52' E 005°54'3 5.1
2017-Jul-16 01:00N 51°52' E 005°50'3 6.4
2017-Jul-16 00:30N 51°53' E 005°46'3 6.4
2017-Jul-16 00:00N 51°54' E 005°41'3 6.6
2017-Jul-15 23:30N 51°54' E 005°35'5 6.5
2017-Jul-15 22:49N 51°53' E 005°28'2 6.3
2017-Jul-15 22:25N 51°52' E 005°25'3 6.7
2017-Jul-15 22:00N 51°49' E 005°23'3 4.8
2017-Jul-15 21:27N 51°49' E 005°19'4 6.9
2017-Jul-15 20:56N 51°49' E 005°13'4 7.2
2017-Jul-15 20:20N 51°49' E 005°06'3 7.6
2017-Jul-15 20:00N 51°49' E 005°02'4 8.5
2017-Jul-15 19:30N 51°50' E 004°55'5 9.1
2017-Jul-15 19:00N 51°49' E 004°48'4 9.2
2017-Jul-15 18:30N 51°49' E 004°41'4 8.7
2017-Jul-15 18:00N 51°53' E 004°37'4 8.2
2017-Jul-15 17:30N 51°54' E 004°31'3 5.2
2017-Jul-15 17:01N 51°54' E 004°27'5 9.0
2017-Jul-15 16:30N 51°54' E 004°19'2 3.1
2017-Jul-15 16:00N 51°53' E 004°18'0 0.0
2017-Jul-15 15:30N 51°53' E 004°18'0 0.0
2017-Jul-15 15:00N 51°53' E 004°18'0 0.0
2017-Jul-15 14:00N 51°53' E 004°18'0 0.0
2017-Jul-15 13:30N 51°53' E 004°18'0 0.0
2017-Jul-15 13:00N 51°53' E 004°18'0 0.0
2017-Jul-15 12:30N 51°53' E 004°18'0 0.0
2017-Jul-15 12:00N 51°53' E 004°18'0 0.0
2017-Jul-15 11:30N 51°53' E 004°18'0 0.0
2017-Jul-15 11:00N 51°53' E 004°18'0 0.0
2017-Jul-15 10:30N 51°53' E 004°18'0 0.0
2017-Jul-15 10:00N 51°53' E 004°18'0 0.0
2017-Jul-15 09:30N 51°53' E 004°18'0 0.0
2017-Jul-15 09:00N 51°53' E 004°18'0 0.0
2017-Jul-15 08:30N 51°53' E 004°18'0 0.0
2017-Jul-15 08:00N 51°53' E 004°18'1 2.5
2017-Jul-15 07:30N 51°53' E 004°19'0 0.2
2017-Jul-15 07:00N 51°53' E 004°19'0 0.0
2017-Jul-15 06:30N 51°53' E 004°19'0 0.0
2017-Jul-15 06:00N 51°53' E 004°19'0 0.0
2017-Jul-15 05:30N 51°53' E 004°19'0 0.0
2017-Jul-15 05:00N 51°53' E 004°19'0 0.0
2017-Jul-15 04:31N 51°53' E 004°19'0 0.0
2017-Jul-15 04:00N 51°53' E 004°19'0 0.0
2017-Jul-15 03:30N 51°53' E 004°19'0 0.0
2017-Jul-15 03:00N 51°53' E 004°19'0 0.0
2017-Jul-15 02:30N 51°53' E 004°19'0 0.0
2017-Jul-15 02:00N 51°53' E 004°19'0 0.0
2017-Jul-15 01:30N 51°53' E 004°19'0 0.0
2017-Jul-15 01:01N 51°53' E 004°19'0 0.0
2017-Jul-15 00:30N 51°53' E 004°19'0 0.0
2017-Jul-15 00:00N 51°53' E 004°19'0 0.0
2017-Jul-14 23:30N 51°53' E 004°19'0 0.0
2017-Jul-14 23:01N 51°53' E 004°19'0 0.0
2017-Jul-14 22:31N 51°53' E 004°19'0 0.0
2017-Jul-14 22:00N 51°53' E 004°19'0 0.0
2017-Jul-14 21:30N 51°53' E 004°19'0 0.0
2017-Jul-14 21:00N 51°53' E 004°19'0 0.0
2017-Jul-14 20:30N 51°53' E 004°19'0 0.0
2017-Jul-14 20:00N 51°53' E 004°19'0 0.0
2017-Jul-14 19:30N 51°53' E 004°19'0 0.0
2017-Jul-14 19:00N 51°53' E 004°19'0 0.0
2017-Jul-14 18:30N 51°53' E 004°19'0 0.0
2017-Jul-14 18:00N 51°53' E 004°19'0 0.0
2017-Jul-14 17:30N 51°53' E 004°19'0 0.0
2017-Jul-14 17:00N 51°53' E 004°19'0 0.0
2017-Jul-14 16:30N 51°53' E 004°19'0 0.0
2017-Jul-14 16:00N 51°53' E 004°19'0 0.0
2017-Jul-14 15:30N 51°53' E 004°19'0 0.0
2017-Jul-14 15:00N 51°53' E 004°19'0 0.0
2017-Jul-14 14:30N 51°53' E 004°19'0 0.0
2017-Jul-14 14:00N 51°53' E 004°19'0 0.0
2017-Jul-14 13:30N 51°53' E 004°19'0 0.0
2017-Jul-14 13:00N 51°53' E 004°19'0 0.0
2017-Jul-14 12:30N 51°53' E 004°19'0 0.0
2017-Jul-14 12:00N 51°53' E 004°19'0 0.4
2017-Jul-14 11:30N 51°53' E 004°19'0 0.4
2017-Jul-14 11:00N 51°53' E 004°19'0 0.0
2017-Jul-14 10:30N 51°53' E 004°19'0 0.0
2017-Jul-14 09:36N 51°53' E 004°19'0 0.0
2017-Jul-14 09:30N 51°53' E 004°19'0 0.0
2017-Jul-14 09:00N 51°53' E 004°19'0 0.0
2017-Jul-14 08:30N 51°53' E 004°19'0 0.0
2017-Jul-14 08:00N 51°53' E 004°19'0 0.0
2017-Jul-14 07:30N 51°53' E 004°19'0 0.0
2017-Jul-14 07:00N 51°53' E 004°19'0 0.0
2017-Jul-14 06:30N 51°53' E 004°19'0 0.0
2017-Jul-14 05:59N 51°53' E 004°19'0 0.0
2017-Jul-14 05:30N 51°53' E 004°19'0 0.0
2017-Jul-14 05:00N 51°53' E 004°19'0 0.0
2017-Jul-14 04:30N 51°53' E 004°19'0 0.0
2017-Jul-14 03:58N 51°53' E 004°19'0 0.0
2017-Jul-14 03:30N 51°53' E 004°19'0 0.0
2017-Jul-14 03:00N 51°53' E 004°19'0 0.0
2017-Jul-14 02:30N 51°53' E 004°19'0 0.0
2017-Jul-14 02:00N 51°53' E 004°19'0 0.0
2017-Jul-14 01:30N 51°53' E 004°19'0 0.0
2017-Jul-14 01:00N 51°53' E 004°19'0 0.0
2017-Jul-14 00:30N 51°53' E 004°19'0 0.0
2017-Jul-14 00:00N 51°53' E 004°19'0 0.0
2017-Jul-13 23:30N 51°53' E 004°19'0 0.0
2017-Jul-13 23:00N 51°53' E 004°19'0 0.0
2017-Jul-13 22:30N 51°53' E 004°19'0 0.0
2017-Jul-13 22:00N 51°53' E 004°19'0 0.0
2017-Jul-13 21:30N 51°53' E 004°19'0 0.0
2017-Jul-13 21:00N 51°53' E 004°19'0 0.0
2017-Jul-13 20:24N 51°53' E 004°19'0 0.0
2017-Jul-13 20:00N 51°53' E 004°19'0 0.4
2017-Jul-13 19:30N 51°53' E 004°19'4 8.8
2017-Jul-13 19:00N 51°51' E 004°25'5 9.5
2017-Jul-13 18:30N 51°50' E 004°32'4 8.3
2017-Jul-13 18:00N 51°48' E 004°39'5 9.0
2017-Jul-13 17:30N 51°49' E 004°46'510.7
2017-Jul-13 17:00N 51°50' E 004°54'1310.8
2017-Jul-13 15:48N 51°49' E 005°16'410.0
2017-Jul-13 15:25N 51°48' E 005°22'611.1
2017-Jul-13 14:53N 51°53' E 005°27'4 9.3
2017-Jul-13 14:30N 51°54' E 005°33'0 0.0
2017-Jul-13 13:56N 51°54' E 005°33'0 0.0
2017-Jul-13 13:20N 51°54' E 005°33'0 0.0
2017-Jul-13 13:00N 51°54' E 005°33'0 0.0
2017-Jul-13 12:26N 51°54' E 005°33'0 0.0
2017-Jul-13 11:50N 51°54' E 005°33'0 0.0
2017-Jul-13 11:29N 51°54' E 005°33'0 0.0
2017-Jul-13 10:50N 51°54' E 005°33'0 0.0
2017-Jul-13 10:26N 51°54' E 005°33'1 1.2
2017-Jul-13 10:00N 51°54' E 005°34'611.5
2017-Jul-13 09:30N 51°53' E 005°43'611.8
2017-Jul-13 09:00N 51°51' E 005°51'5 9.0
2017-Jul-13 08:30N 51°51' E 005°59'4 8.4
2017-Jul-13 08:00N 51°51' E 006°06'611.1
2017-Jul-13 07:30N 51°50' E 006°14'510.9
2017-Jul-13 07:00N 51°46' E 006°20'4 8.5
2017-Jul-13 06:30N 51°43' E 006°25'510.3
2017-Jul-13 05:59N 51°40' E 006°32'4 7.9
2017-Jul-13 05:30N 51°37' E 006°36'4 8.1
2017-Jul-13 05:00N 51°34' E 006°41'5 9.5
2017-Jul-13 04:30N 51°30' E 006°43'4 7.8
2017-Jul-13 04:00N 51°26' E 006°43'5 8.4
2017-Jul-13 03:22N 51°21' E 006°39'13 7.5
2017-Jul-13 01:34N 51°09' E 006°48'13 7.9
2017-Jul-12 23:57N 50°58' E 006°60'4 9.6
2017-Jul-12 23:30N 50°54' E 006°60'3 5.7
2017-Jul-12 22:59N 50°51' E 006°59'4 9.2
2017-Jul-12 22:30N 50°47' E 007°02'610.7
2017-Jul-12 21:57N 50°43' E 007°09'  

Dump ship's entire track history